L M Clayton Airport
KOLF : now visible

Airfield :











YOU CAN JOIN US ON...

 
LOGIN :

Register | Disclaimer

   EN    FR    IT 

 









Legend :    VFR   Marginal VFR   IFR   Intensive IFR   Very Intensive IFR
Visi :
Ceiling :
>= 8 km
>= 3000ft
5 to 8 km
1000 to 3000 ft
1500m to 5 km
500 to 1000 ft
800 to 1500m
200 to 500 ft
< 800m
< 200 ft
Symbols :   Thunderstorms  Fog  Heavy snow  Heavy precipitations  Wind > 20 kt







- Airport Elevation : 1986 ft


KOLF - L M Clayton

CURRENT METAR :
  • 200953Z AUTO 29005KT 10SM CLR 13/12 A2975 RMK AO2 SLP067 T01330117

EXPIRED METARs :
  • 200853Z AUTO 24005KT 10SM SCT110 13/12 A2977 RMK AO2 SLP073 60002 T01280117 53008
  • 200753Z AUTO 28003KT 10SM FEW100 14/13 A2977 RMK AO2 SLP072 T01440128

TAF KOLF
Valid from the 20 at 06:00 until the 21 at 06:00 UTC


200520Z 2006/2106 VRB06KT P6SM VCTS BKN080CB
FM200900 VRB06KT 6SM -SHRA BKN100
FM201500 34010KT P6SM BKN120
FM210300 35009KT 6SM -SHRA OVC050
No reported NOTAMs for that airfield.



MET'MAP, your aeronautical weather chart ! - Copyright ORBIFLY December 2007 - Disclaimer

ORBIFLY MET'MAP TEAM :

Programming & Development : Alexandra Zaïnal
Concept & Development : Baudouin d'Aumeries
Co-Development & Prog : Marc-Olivier Méhu
Technical & hardware support : Manuel Goepfert

Contact : metmap@orbifly.com




SOURCES & CREDITS :

   NOAA       Earth
Advisory